Cacilhas — VRUA8 — position and weather

sailwx.info

Track history (hours):
 
Tides and Currents Weather Stations Pressure Air Temp Water Temp Dewpoint Dewpoint Depression Visibility Wind Speed Wind Dir Waves Ship Positions

Cacilhas

Last reported at 2015-Mar-26 17:34 UTC. Time now 2015-Mar-26 19:16 UTC.
Position N 22°17' E 114°09'.

Length 29 m; draft 1.6 m.

Type: High speed craft. MMSI: 477092000.

Date/timePositionNaut miles runAvg speedWind from/ knotsBaromVisibWave heightAir tempDewpointWater temp
2015-Mar-26 17:34N 22°17' E 114°09'0 0.0
2015-Mar-26 14:34N 22°17' E 114°09'0 0.0
2015-Mar-26 11:34N 22°17' E 114°09'0 0.0
2015-Mar-26 08:33N 22°17' E 114°09'2019.9
2015-Mar-26 07:33N 22°11' E 113°49'1414.0
2015-Mar-26 06:32N 22°12' E 113°34'0 0.0
2015-Mar-26 05:09N 22°12' E 113°34'0 0.0
2015-Mar-26 04:30N 22°12' E 113°34'0 0.0
2015-Mar-26 03:26N 22°12' E 113°34'1921.5
2015-Mar-26 02:34N 22°12' E 113°54'1514.5
2015-Mar-26 01:34N 22°17' E 114°08'3332.6
2015-Mar-26 00:33N 22°12' E 113°34'1717.5
2015-Mar-25 23:33N 22°12' E 113°53'1616.4
2015-Mar-25 22:33N 22°17' E 114°09'0 0.0
2015-Mar-25 21:33N 22°17' E 114°09'0 0.0
2015-Mar-25 20:33N 22°17' E 114°09'0 0.0
2015-Mar-25 19:33N 22°17' E 114°09'0 0.0
2015-Mar-25 18:33N 22°17' E 114°09'6 2.8
2015-Mar-25 16:14N 22°14' E 114°03'6 9.4
2015-Mar-25 15:33N 22°17' E 114°09'5 2.3
2015-Mar-25 13:15N 22°15' E 114°04'5 7.6
2015-Mar-25 12:34N 22°17' E 114°09'8 3.6
2015-Mar-25 10:21N 22°14' E 114°01'8 9.8
2015-Mar-25 09:34N 22°17' E 114°09'5 2.0
2015-Mar-25 07:15N 22°16' E 114°04'5 6.9
2015-Mar-25 06:33N 22°17' E 114°09'0 0.1
2015-Mar-25 03:33N 22°17' E 114°09'0 0.0
2015-Mar-25 00:33N 22°17' E 114°09'1818.0
2015-Mar-24 23:33N 22°11' E 113°51'0 0.1
2015-Mar-24 17:34N 22°11' E 113°51'1818.0
2015-Mar-24 16:34N 22°17' E 114°09'0 0.0
2015-Mar-24 13:12N 22°17' E 114°09'1929.7
2015-Mar-24 12:33N 22°11' E 113°49'1514.4
2015-Mar-24 11:33N 22°12' E 113°34'3333.7
2015-Mar-24 10:33N 22°17' E 114°09'2020.2
2015-Mar-24 09:33N 22°11' E 113°48'1312.8
2015-Mar-24 08:33N 22°11' E 113°34'3333.2
2015-Mar-24 07:33N 22°17' E 114°09'0 0.1
2015-Mar-24 06:33N 22°17' E 114°09'0 0.0
2015-Mar-22 18:33N 22°17' E 114°09'17 8.5
2015-Mar-22 16:32N 22°12' E 113°52'1717.4
2015-Mar-22 15:34N 22°17' E 114°09'3 1.2
2015-Mar-22 13:14N 22°17' E 114°06'3 3.9
2015-Mar-22 12:33N 22°17' E 114°09'17 8.3
2015-Mar-22 10:32N 22°12' E 113°52'1717.7
2015-Mar-22 09:33N 22°17' E 114°09'17 8.4
2015-Mar-22 07:30N 22°12' E 113°52'1717.5
2015-Mar-22 06:31N 22°17' E 114°09'2812.5
2015-Mar-22 04:17N 22°11' E 113°40'2838.1
2015-Mar-22 03:33N 22°17' E 114°09'1917.5
2015-Mar-22 02:30N 22°11' E 113°50'7 5.8
2015-Mar-22 01:14N 22°12' E 113°42'2638.3
2015-Mar-22 00:33N 22°17' E 114°09'2018.7
2015-Mar-21 23:30N 22°11' E 113°49'18 2.9
2015-Mar-21 17:10N 22°17' E 114°07'2 2.8
2015-Mar-21 16:33N 22°17' E 114°09'2 1.1
2015-Mar-21 14:12N 22°17' E 114°06'2 3.9
2015-Mar-21 13:33N 22°17' E 114°09'1917.9
2015-Mar-21 12:28N 22°11' E 113°49'9 8.0
2015-Mar-21 11:20N 22°11' E 113°39'2835.1
2015-Mar-21 10:32N 22°17' E 114°09'2019.4
2015-Mar-21 09:29N 22°11' E 113°48'9 7.3
2015-Mar-21 08:18N 22°11' E 113°39'2937.7
2015-Mar-21 07:33N 22°17' E 114°09'2018.3
2015-Mar-21 06:27N 22°11' E 113°49'6 3.1
2015-Mar-21 04:21N 22°11' E 113°42'2631.6
2015-Mar-21 03:32N 22°17' E 114°09'0 0.0
2015-Mar-21 02:31N 22°17' E 114°09'1 0.8
2015-Mar-21 01:14N 22°18' E 114°08'1 1.5
2015-Mar-21 00:33N 22°17' E 114°09'0 0.1
2015-Mar-20 23:32N 22°17' E 114°09'0 0.0
2015-Mar-20 22:33N 22°17' E 114°09'0 0.0
2015-Mar-20 21:33N 22°17' E 114°09'0 0.1
2015-Mar-20 20:33N 22°17' E 114°09'0 0.1
2015-Mar-20 19:33N 22°17' E 114°09'0 0.0
2015-Mar-20 18:29N 22°17' E 114°09'0 0.0
2015-Mar-20 17:32N 22°17' E 114°09'0 0.0
2015-Mar-20 16:32N 22°17' E 114°09'0 0.1
2015-Mar-20 15:33N 22°17' E 114°09'0 0.1
2015-Mar-20 14:33N 22°17' E 114°09'0 0.0
2015-Mar-20 13:33N 22°17' E 114°09'0 0.0
2015-Mar-20 12:31N 22°17' E 114°09'0 0.0
2015-Mar-20 11:33N 22°17' E 114°09'2 0.6
2015-Mar-20 07:17N 22°20' E 114°09'2 0.8
2015-Mar-20 04:28N 22°17' E 114°09'2 0.0
2015-Mar-18 01:19N 22°20' E 114°09'2 1.2
2015-Mar-17 23:23N 22°17' E 114°09'0 0.1
2015-Mar-17 22:33N 22°17' E 114°09'0 0.0
2015-Mar-17 21:33N 22°17' E 114°09'0 0.0
2015-Mar-17 20:33N 22°17' E 114°09'0 0.0
2015-Mar-17 19:33N 22°17' E 114°09'0 0.0
2015-Mar-17 18:33N 22°17' E 114°09'0 0.0
2015-Mar-17 17:33N 22°17' E 114°09'0 0.0
2015-Mar-17 16:33N 22°17' E 114°09'0 0.0
2015-Mar-17 15:33N 22°17' E 114°09'3333.3
2015-Mar-17 14:33N 22°12' E 113°34'1515.2
2015-Mar-17 13:33N 22°11' E 113°50'1818.4
2015-Mar-17 12:34N 22°17' E 114°09'3322.2
2015-Mar-17 11:04N 22°12' E 113°34'1935.4
2015-Mar-17 10:31N 22°12' E 113°55'1515.1
2015-Mar-17 09:33N 22°17' E 114°09'15 7.5
2015-Mar-17 07:31N 22°12' E 113°54'1515.8
2015-Mar-17 06:34N 22°17' E 114°09'3316.5
2015-Mar-17 04:33N 22°11' E 113°34'3332.8
2015-Mar-17 03:32N 22°17' E 114°09'1717.3
2015-Mar-17 02:33N 22°11' E 113°52'1717.2
2015-Mar-17 01:34N 22°12' E 113°34'3333.4
2015-Mar-17 00:33N 22°17' E 114°09'2120.7
2015-Mar-16 23:33N 22°11' E 113°48'13 3.3
2015-Mar-16 19:34N 22°12' E 113°34'3333.3
2015-Mar-16 18:33N 22°18' E 114°09'0 0.3
2015-Mar-16 17:34N 22°17' E 114°09'  
Track history (hours):
 
Tides and Currents Weather Stations Pressure Air Temp Water Temp Dewpoint Dewpoint Depression Visibility Wind Speed Wind Dir Waves Ship Positions

Cacilhas

Last reported at 2015-Mar-26 17:34 UTC. Time now 2015-Mar-26 19:16 UTC.
Position N 22°17' E 114°09'.

Length 29 m; draft 1.6 m.

Type: High speed craft. MMSI: 477092000.

Date/timePositionNaut miles runAvg speedWind from/ knotsBaromVisibWave heightAir tempDewpointWater temp
2015-Mar-26 17:34N 22°17' E 114°09'0 0.0
2015-Mar-26 14:34N 22°17' E 114°09'0 0.0
2015-Mar-26 11:34N 22°17' E 114°09'0 0.0
2015-Mar-26 08:33N 22°17' E 114°09'2019.9
2015-Mar-26 07:33N 22°11' E 113°49'1414.0
2015-Mar-26 06:32N 22°12' E 113°34'0 0.0
2015-Mar-26 05:09N 22°12' E 113°34'0 0.0
2015-Mar-26 04:30N 22°12' E 113°34'0 0.0
2015-Mar-26 03:26N 22°12' E 113°34'1921.5
2015-Mar-26 02:34N 22°12' E 113°54'1514.5
2015-Mar-26 01:34N 22°17' E 114°08'3332.6
2015-Mar-26 00:33N 22°12' E 113°34'1717.5
2015-Mar-25 23:33N 22°12' E 113°53'1616.4
2015-Mar-25 22:33N 22°17' E 114°09'0 0.0
2015-Mar-25 21:33N 22°17' E 114°09'0 0.0
2015-Mar-25 20:33N 22°17' E 114°09'0 0.0
2015-Mar-25 19:33N 22°17' E 114°09'0 0.0
2015-Mar-25 18:33N 22°17' E 114°09'6 2.8
2015-Mar-25 16:14N 22°14' E 114°03'6 9.4
2015-Mar-25 15:33N 22°17' E 114°09'5 2.3
2015-Mar-25 13:15N 22°15' E 114°04'5 7.6
2015-Mar-25 12:34N 22°17' E 114°09'8 3.6
2015-Mar-25 10:21N 22°14' E 114°01'8 9.8
2015-Mar-25 09:34N 22°17' E 114°09'5 2.0
2015-Mar-25 07:15N 22°16' E 114°04'5 6.9
2015-Mar-25 06:33N 22°17' E 114°09'0 0.1
2015-Mar-25 03:33N 22°17' E 114°09'0 0.0
2015-Mar-25 00:33N 22°17' E 114°09'1818.0
2015-Mar-24 23:33N 22°11' E 113°51'0 0.1
2015-Mar-24 17:34N 22°11' E 113°51'1818.0
2015-Mar-24 16:34N 22°17' E 114°09'0 0.0
2015-Mar-24 13:12N 22°17' E 114°09'1929.7
2015-Mar-24 12:33N 22°11' E 113°49'1514.4
2015-Mar-24 11:33N 22°12' E 113°34'3333.7
2015-Mar-24 10:33N 22°17' E 114°09'2020.2
2015-Mar-24 09:33N 22°11' E 113°48'1312.8
2015-Mar-24 08:33N 22°11' E 113°34'3333.2
2015-Mar-24 07:33N 22°17' E 114°09'0 0.1
2015-Mar-24 06:33N 22°17' E 114°09'0 0.0
2015-Mar-22 18:33N 22°17' E 114°09'17 8.5
2015-Mar-22 16:32N 22°12' E 113°52'1717.4
2015-Mar-22 15:34N 22°17' E 114°09'3 1.2
2015-Mar-22 13:14N 22°17' E 114°06'3 3.9
2015-Mar-22 12:33N 22°17' E 114°09'17 8.3
2015-Mar-22 10:32N 22°12' E 113°52'1717.7
2015-Mar-22 09:33N 22°17' E 114°09'17 8.4
2015-Mar-22 07:30N 22°12' E 113°52'1717.5
2015-Mar-22 06:31N 22°17' E 114°09'2812.5
2015-Mar-22 04:17N 22°11' E 113°40'2838.1
2015-Mar-22 03:33N 22°17' E 114°09'1917.5
2015-Mar-22 02:30N 22°11' E 113°50'7 5.8
2015-Mar-22 01:14N 22°12' E 113°42'2638.3
2015-Mar-22 00:33N 22°17' E 114°09'2018.7
2015-Mar-21 23:30N 22°11' E 113°49'18 2.9
2015-Mar-21 17:10N 22°17' E 114°07'2 2.8
2015-Mar-21 16:33N 22°17' E 114°09'2 1.1
2015-Mar-21 14:12N 22°17' E 114°06'2 3.9
2015-Mar-21 13:33N 22°17' E 114°09'1917.9
2015-Mar-21 12:28N 22°11' E 113°49'9 8.0
2015-Mar-21 11:20N 22°11' E 113°39'2835.1
2015-Mar-21 10:32N 22°17' E 114°09'2019.4
2015-Mar-21 09:29N 22°11' E 113°48'9 7.3
2015-Mar-21 08:18N 22°11' E 113°39'2937.7
2015-Mar-21 07:33N 22°17' E 114°09'2018.3
2015-Mar-21 06:27N 22°11' E 113°49'6 3.1
2015-Mar-21 04:21N 22°11' E 113°42'2631.6
2015-Mar-21 03:32N 22°17' E 114°09'0 0.0
2015-Mar-21 02:31N 22°17' E 114°09'1 0.8
2015-Mar-21 01:14N 22°18' E 114°08'1 1.5
2015-Mar-21 00:33N 22°17' E 114°09'0 0.1
2015-Mar-20 23:32N 22°17' E 114°09'0 0.0
2015-Mar-20 22:33N 22°17' E 114°09'0 0.0
2015-Mar-20 21:33N 22°17' E 114°09'0 0.1
2015-Mar-20 20:33N 22°17' E 114°09'0 0.1
2015-Mar-20 19:33N 22°17' E 114°09'0 0.0
2015-Mar-20 18:29N 22°17' E 114°09'0 0.0
2015-Mar-20 17:32N 22°17' E 114°09'0 0.0
2015-Mar-20 16:32N 22°17' E 114°09'0 0.1
2015-Mar-20 15:33N 22°17' E 114°09'0 0.1
2015-Mar-20 14:33N 22°17' E 114°09'0 0.0
2015-Mar-20 13:33N 22°17' E 114°09'0 0.0
2015-Mar-20 12:31N 22°17' E 114°09'0 0.0
2015-Mar-20 11:33N 22°17' E 114°09'2 0.6
2015-Mar-20 07:17N 22°20' E 114°09'2 0.8
2015-Mar-20 04:28N 22°17' E 114°09'2 0.0
2015-Mar-18 01:19N 22°20' E 114°09'2 1.2
2015-Mar-17 23:23N 22°17' E 114°09'0 0.1
2015-Mar-17 22:33N 22°17' E 114°09'0 0.0
2015-Mar-17 21:33N 22°17' E 114°09'0 0.0
2015-Mar-17 20:33N 22°17' E 114°09'0 0.0
2015-Mar-17 19:33N 22°17' E 114°09'0 0.0
2015-Mar-17 18:33N 22°17' E 114°09'0 0.0
2015-Mar-17 17:33N 22°17' E 114°09'0 0.0
2015-Mar-17 16:33N 22°17' E 114°09'0 0.0
2015-Mar-17 15:33N 22°17' E 114°09'3333.3
2015-Mar-17 14:33N 22°12' E 113°34'1515.2
2015-Mar-17 13:33N 22°11' E 113°50'1818.4
2015-Mar-17 12:34N 22°17' E 114°09'3322.2
2015-Mar-17 11:04N 22°12' E 113°34'1935.4
2015-Mar-17 10:31N 22°12' E 113°55'1515.1
2015-Mar-17 09:33N 22°17' E 114°09'15 7.5
2015-Mar-17 07:31N 22°12' E 113°54'1515.8
2015-Mar-17 06:34N 22°17' E 114°09'3316.5
2015-Mar-17 04:33N 22°11' E 113°34'3332.8
2015-Mar-17 03:32N 22°17' E 114°09'1717.3
2015-Mar-17 02:33N 22°11' E 113°52'1717.2
2015-Mar-17 01:34N 22°12' E 113°34'3333.4
2015-Mar-17 00:33N 22°17' E 114°09'2120.7
2015-Mar-16 23:33N 22°11' E 113°48'13 3.3
2015-Mar-16 19:34N 22°12' E 113°34'3333.3
2015-Mar-16 18:33N 22°18' E 114°09'0 0.3
2015-Mar-16 17:34N 22°17' E 114°09'  

Dump ship's entire track history